Time;durP1;ratioP1;P1;durP2;ratioP2;P2;SDS_P1;SDS_P2;PMS_P1;PMS_P2;Temp;Humidity;BMP_temperature;BMP_pressure;BME280_temperature;BME280_humidity;BME280_pressure;Samples;Min_cycle;Max_cycle;Signal;HPM_P1;HPM_P2
2021/10/03 00:01:17;;;;;;;2.92;2.60;;;16.90;77.10;;;;;;4893445;29;20024;-86
2021/10/03 00:03:46;;;;;;;3.05;2.72;;;16.90;77.00;;;;;;4884343;29;20044;-84
2021/10/03 00:06:13;;;;;;;3.55;2.50;;;16.90;77.20;;;;;;4898867;29;20088;-84
2021/10/03 00:08:39;;;;;;;3.78;2.60;;;16.90;77.10;;;;;;4894133;29;20072;-86
2021/10/03 00:11:07;;;;;;;4.35;2.60;;;16.80;76.90;;;;;;4890023;29;20059;-84
2021/10/03 00:13:33;;;;;;;3.60;2.22;;;16.70;76.80;;;;;;4883878;29;20068;-83
2021/10/03 00:16:00;;;;;;;2.67;2.47;;;16.70;77.10;;;;;;4898356;29;20122;-83
2021/10/03 00:18:26;;;;;;;3.92;2.75;;;16.60;77.20;;;;;;4891338;29;20021;-86
2021/10/03 00:20:53;;;;;;;2.63;2.42;;;16.60;77.40;;;;;;4888443;29;20040;-85
2021/10/03 00:23:20;;;;;;;3.75;2.70;;;16.60;77.50;;;;;;4887972;29;20053;-84
2021/10/03 00:25:46;;;;;;;2.97;2.70;;;16.60;77.60;;;;;;4896364;29;20033;-84
2021/10/03 00:28:12;;;;;;;3.38;2.60;;;16.60;77.70;;;;;;4888853;29;20044;-84
2021/10/03 00:30:39;;;;;;;3.83;2.15;;;16.50;77.60;;;;;;4889710;29;20112;-86
2021/10/03 00:33:05;;;;;;;3.58;2.55;;;16.50;77.70;;;;;;4885504;29;20475;-85
2021/10/03 00:35:33;;;;;;;2.83;2.53;;;16.40;77.70;;;;;;4890507;29;20116;-84
2021/10/03 00:38:04;;;;;;;4.28;2.63;;;16.30;77.70;;;;;;4890170;29;20041;-86
2021/10/03 00:40:31;;;;;;;4.63;2.60;;;16.30;77.80;;;;;;4890269;29;20028;-84
2021/10/03 00:43:00;;;;;;;2.95;2.45;;;16.30;78.00;;;;;;4894265;29;20316;-83
2021/10/03 00:45:26;;;;;;;3.33;2.70;;;16.20;78.00;;;;;;4914164;29;20114;-84
2021/10/03 00:47:52;;;;;;;3.38;2.20;;;16.20;78.00;;;;;;4886534;29;20039;-84
2021/10/03 00:50:18;;;;;;;3.72;2.70;;;16.10;78.10;;;;;;4898490;29;20036;-84
2021/10/03 00:52:45;;;;;;;3.80;2.33;;;16.10;78.30;;;;;;4883133;29;20076;-83
2021/10/03 00:55:13;;;;;;;3.22;2.28;;;16.10;78.40;;;;;;4905932;29;20060;-87
2021/10/03 00:57:40;;;;;;;5.72;2.83;;;16.10;78.40;;;;;;4891179;29;20028;-85
2021/10/03 01:00:07;;;;;;;2.97;2.35;;;16.10;78.60;;;;;;4912975;29;20401;-85
2021/10/03 01:02:33;;;;;;;3.92;2.40;;;16.10;78.60;;;;;;4886425;29;20033;-83
2021/10/03 01:04:59;;;;;;;2.22;2.03;;;16.10;79.30;;;;;;4894117;29;20062;-86
2021/10/03 01:07:25;;;;;;;2.70;2.50;;;16.10;78.90;;;;;;4897342;29;20028;-86
2021/10/03 01:09:50;;;;;;;2.72;2.53;;;16.10;78.90;;;;;;4913689;29;20032;-85
2021/10/03 01:12:16;;;;;;;2.88;2.20;;;16.10;78.80;;;;;;4881845;29;20025;-87
2021/10/03 01:14:41;;;;;;;2.65;2.40;;;16.20;79.00;;;;;;4890752;29;20342;-85
2021/10/03 01:17:07;;;;;;;2.45;2.25;;;16.20;79.20;;;;;;4895314;29;20092;-85
2021/10/03 01:19:35;;;;;;;6.18;2.70;;;16.10;79.10;;;;;;4882603;29;20056;-84
2021/10/03 01:22:01;;;;;;;3.67;2.63;;;16.10;79.10;;;;;;4885219;29;20120;-84
2021/10/03 01:24:30;;;;;;;2.65;2.45;;;16.00;79.20;;;;;;4896911;29;20025;-84
2021/10/03 01:26:55;;;;;;;3.08;2.78;;;16.10;79.40;;;;;;4886285;29;20025;-83
2021/10/03 01:29:21;;;;;;;3.38;2.67;;;16.00;79.40;;;;;;4894260;29;20061;-84
2021/10/03 01:31:47;;;;;;;3.33;2.70;;;16.00;79.60;;;;;;4887288;29;20029;-84
2021/10/03 01:34:12;;;;;;;3.63;2.63;;;16.00;79.70;;;;;;4895014;29;20036;-87
2021/10/03 01:36:38;;;;;;;3.10;2.80;;;15.90;79.70;;;;;;4894060;29;20452;-84
2021/10/03 01:39:03;;;;;;;4.07;3.20;;;15.90;80.00;;;;;;4895390;29;20038;-85
2021/10/03 01:41:29;;;;;;;3.30;2.70;;;15.90;80.00;;;;;;4898354;29;20033;-86
2021/10/03 01:43:55;;;;;;;5.63;2.80;;;15.80;80.00;;;;;;4895138;29;20029;-83
2021/10/03 01:46:21;;;;;;;4.80;2.72;;;15.70;79.90;;;;;;4887106;29;20466;-86
2021/10/03 01:48:46;;;;;;;3.40;2.80;;;15.70;80.00;;;;;;4884123;29;20040;-86
2021/10/03 01:51:13;;;;;;;3.50;2.80;;;15.70;79.90;;;;;;4882814;29;20556;-86
2021/10/03 01:53:42;;;;;;;3.33;2.90;;;15.60;79.80;;;;;;4907264;29;20029;-84
2021/10/03 01:56:10;;;;;;;3.15;2.83;;;15.50;80.00;;;;;;4899624;29;20044;-85
2021/10/03 01:58:40;;;;;;;2.92;2.63;;;15.50;80.20;;;;;;4884322;29;20021;-83
2021/10/03 02:01:10;;;;;;;3.22;2.75;;;15.40;80.30;;;;;;4913647;29;20033;-83
2021/10/03 02:03:36;;;;;;;2.72;2.33;;;15.40;80.90;;;;;;4880326;29;20184;-86
2021/10/03 02:06:02;;;;;;;3.50;2.33;;;15.40;80.60;;;;;;4885376;29;20509;-84
2021/10/03 02:08:27;;;;;;;3.67;2.58;;;15.40;80.80;;;;;;4885140;29;20489;-84
2021/10/03 02:10:53;;;;;;;2.90;2.60;;;15.40;80.70;;;;;;4887551;29;20062;-85
2021/10/03 02:13:22;;;;;;;3.20;2.50;;;15.40;80.70;;;;;;4890468;29;20465;-86
2021/10/03 02:15:49;;;;;;;3.10;2.80;;;15.40;80.90;;;;;;4913343;29;20024;-85
2021/10/03 02:18:17;;;;;;;2.67;2.42;;;15.40;81.00;;;;;;4892064;29;20051;-85
2021/10/03 02:20:44;;;;;;;3.05;2.40;;;15.40;80.90;;;;;;4891197;29;20089;-83
2021/10/03 02:23:12;;;;;;;2.08;1.98;;;15.40;81.00;;;;;;4894831;29;20037;-87
2021/10/03 02:25:45;;;;;;;3.58;2.63;;;15.50;81.20;;;;;;4892542;29;20047;-87
2021/10/03 02:28:19;;;;;;;2.78;2.13;;;15.50;81.20;;;;;;4910551;29;20203;-84
2021/10/03 02:30:47;;;;;;;2.47;2.05;;;15.40;81.00;;;;;;4889719;29;20029;-86
2021/10/03 02:33:13;;;;;;;3.03;2.72;;;15.40;81.00;;;;;;4912672;29;20028;-84
2021/10/03 02:35:39;;;;;;;3.25;2.50;;;15.50;81.10;;;;;;4890223;29;20100;-85
2021/10/03 02:38:10;;;;;;;2.58;2.38;;;15.40;81.00;;;;;;4912220;29;20036;-84
2021/10/03 02:40:36;;;;;;;4.63;2.30;;;15.40;81.10;;;;;;4896144;29;20405;-86
2021/10/03 02:43:05;;;;;;;3.67;2.47;;;15.40;81.10;;;;;;4912877;29;20517;-86
2021/10/03 02:45:36;;;;;;;2.60;2.40;;;15.40;81.30;;;;;;4896979;29;20028;-86
2021/10/03 02:48:03;;;;;;;2.97;2.45;;;15.30;81.10;;;;;;4899092;29;20036;-87
2021/10/03 02:50:28;;;;;;;5.28;2.90;;;15.30;81.20;;;;;;4896151;29;20041;-87
2021/10/03 02:52:55;;;;;;;3.40;2.80;;;15.30;81.20;;;;;;4889888;29;20024;-86
2021/10/03 02:55:21;;;;;;;4.28;3.20;;;15.20;81.20;;;;;;4899636;29;20144;-85
2021/10/03 02:57:46;;;;;;;3.10;2.70;;;15.20;81.20;;;;;;4896732;29;20028;-85
2021/10/03 03:00:12;;;;;;;4.25;2.85;;;15.20;81.30;;;;;;4896698;29;20099;-85
2021/10/03 03:02:38;;;;;;;3.42;3.03;;;15.10;81.40;;;;;;4891841;29;20056;-87
2021/10/03 03:05:08;;;;;;;3.75;2.90;;;15.10;81.60;;;;;;4905788;29;20033;-85
2021/10/03 03:07:35;;;;;;;3.05;2.67;;;15.10;81.80;;;;;;4912653;29;20036;-84
2021/10/03 03:10:03;;;;;;;3.45;2.95;;;15.20;81.90;;;;;;4913171;29;20067;-85
2021/10/03 03:12:29;;;;;;;3.20;2.85;;;15.10;81.80;;;;;;4881523;29;20037;-84
2021/10/03 03:14:54;;;;;;;3.88;3.10;;;15.10;81.70;;;;;;4884376;29;20036;-85
2021/10/03 03:17:23;;;;;;;3.50;3.10;;;15.10;81.70;;;;;;4892200;29;20036;-85
2021/10/03 03:19:49;;;;;;;3.33;2.97;;;15.10;81.80;;;;;;4893119;29;20109;-86
2021/10/03 03:22:15;;;;;;;3.85;3.00;;;15.00;81.80;;;;;;4904452;29;20387;-86
2021/10/03 03:24:41;;;;;;;3.75;3.03;;;15.00;81.80;;;;;;4891849;29;20036;-86
2021/10/03 03:27:08;;;;;;;4.53;3.05;;;14.90;81.70;;;;;;4882471;29;20049;-86
2021/10/03 03:29:34;;;;;;;3.17;2.80;;;14.90;81.70;;;;;;4910979;29;20104;-85
2021/10/03 03:32:01;;;;;;;3.40;2.85;;;14.90;81.80;;;;;;4889579;29;20029;-86
2021/10/03 03:34:27;;;;;;;3.42;2.70;;;14.90;81.80;;;;;;4891996;29;20059;-85
2021/10/03 03:36:53;;;;;;;3.78;2.80;;;14.80;81.80;;;;;;4892109;29;20154;-86
2021/10/03 03:39:19;;;;;;;3.65;2.58;;;14.80;81.70;;;;;;4892516;29;20068;-85
2021/10/03 03:41:44;;;;;;;3.25;2.92;;;14.80;81.70;;;;;;4897972;29;20068;-86
2021/10/03 03:44:10;;;;;;;3.05;2.40;;;14.80;81.80;;;;;;4886926;29;20033;-84
2021/10/03 03:46:35;;;;;;;3.10;2.75;;;14.80;81.80;;;;;;4892459;29;20184;-84
2021/10/03 03:49:01;;;;;;;4.28;2.72;;;14.80;81.90;;;;;;4912415;29;20426;-87
2021/10/03 03:51:27;;;;;;;4.70;2.55;;;14.80;81.80;;;;;;4887107;29;20450;-86
2021/10/03 03:53:52;;;;;;;3.15;2.72;;;14.80;81.90;;;;;;4904098;29;20033;-85
2021/10/03 03:56:19;;;;;;;2.80;2.33;;;14.80;81.90;;;;;;4892863;29;20138;-85
2021/10/03 03:58:45;;;;;;;3.22;2.75;;;14.80;82.00;;;;;;4899554;29;20029;-84
2021/10/03 04:01:10;;;;;;;2.67;2.30;;;14.80;82.00;;;;;;4899874;29;20039;-85
2021/10/03 04:03:37;;;;;;;3.22;2.45;;;14.90;82.00;;;;;;4899914;29;20056;-84
2021/10/03 04:06:03;;;;;;;5.38;2.75;;;14.90;82.00;;;;;;4901599;29;20040;-85
2021/10/03 04:08:31;;;;;;;3.03;2.40;;;14.80;82.00;;;;;;4898821;29;20048;-85
2021/10/03 04:10:56;;;;;;;2.80;2.53;;;14.80;82.10;;;;;;4909040;29;20546;-83
2021/10/03 04:13:22;;;;;;;4.00;2.30;;;14.80;81.90;;;;;;4909372;29;20080;-84
2021/10/03 04:15:48;;;;;;;3.47;2.40;;;14.80;82.10;;;;;;4908407;29;20029;-84
2021/10/03 04:18:14;;;;;;;3.10;2.33;;;14.80;82.00;;;;;;4895360;29;20542;-84
2021/10/03 04:20:40;;;;;;;3.80;2.47;;;14.80;82.10;;;;;;4912527;29;20033;-83
2021/10/03 04:23:06;;;;;;;2.78;2.20;;;14.90;82.20;;;;;;4894631;29;20025;-84
2021/10/03 04:25:32;;;;;;;2.50;2.00;;;14.80;82.00;;;;;;4898380;29;20065;-84
2021/10/03 04:27:57;;;;;;;2.65;2.45;;;14.90;82.10;;;;;;4903967;29;20036;-84
2021/10/03 04:30:23;;;;;;;2.80;2.30;;;14.80;82.20;;;;;;4895935;29;20060;-85
2021/10/03 04:32:49;;;;;;;3.13;2.40;;;14.80;82.10;;;;;;4901353;29;20040;-83
2021/10/03 04:35:14;;;;;;;3.33;2.13;;;14.80;82.20;;;;;;4909343;29;20024;-83
2021/10/03 04:37:40;;;;;;;3.72;2.55;;;14.80;82.30;;;;;;4893204;29;20040;-82
2021/10/03 04:40:06;;;;;;;2.50;2.20;;;14.80;82.30;;;;;;4898363;29;20482;-83
2021/10/03 04:42:33;;;;;;;2.85;2.25;;;14.90;82.40;;;;;;4899706;29;20089;-84
2021/10/03 04:44:59;;;;;;;3.15;2.00;;;14.80;82.30;;;;;;4901227;29;20029;-85
2021/10/03 04:47:25;;;;;;;2.65;1.75;;;14.90;82.40;;;;;;4901159;29;20029;-84
2021/10/03 04:49:53;;;;;;;2.58;2.30;;;14.90;82.40;;;;;;4889770;29;20048;-84
2021/10/03 04:52:20;;;;;;;3.30;2.47;;;14.90;82.40;;;;;;4881157;29;20037;-84
2021/10/03 04:54:46;;;;;;;2.15;1.95;;;14.90;82.50;;;;;;4883007;29;20150;-84
2021/10/03 04:57:11;;;;;;;2.67;2.47;;;14.90;82.50;;;;;;4899479;29;20069;-84
2021/10/03 04:59:37;;;;;;;2.53;2.33;;;14.90;82.40;;;;;;4902225;29;20051;-85
2021/10/03 05:02:03;;;;;;;3.17;2.00;;;14.90;82.70;;;;;;4916102;23;20113;-90
2021/10/03 05:04:29;;;;;;;2.90;2.00;;;14.80;82.50;;;;;;4919236;29;20047;-91
2021/10/03 05:06:54;;;;;;;2.20;2.00;;;14.80;82.50;;;;;;4909879;29;20510;-90
2021/10/03 05:09:20;;;;;;;2.67;1.98;;;14.90;82.60;;;;;;4891102;29;20047;-90
2021/10/03 05:11:46;;;;;;;2.50;2.30;;;14.80;82.40;;;;;;4876669;29;20040;-92
2021/10/03 05:14:12;;;;;;;4.47;2.30;;;14.80;82.30;;;;;;4881392;29;20092;-91
2021/10/03 05:16:37;;;;;;;2.92;2.50;;;14.80;82.30;;;;;;4880675;29;20067;-91
2021/10/03 05:19:04;;;;;;;2.67;2.28;;;14.80;82.40;;;;;;4880640;29;20048;-91
2021/10/03 05:21:30;;;;;;;2.42;2.20;;;14.80;82.60;;;;;;4879340;29;20086;-91
2021/10/03 05:23:57;;;;;;;3.75;2.22;;;14.80;82.70;;;;;;4880919;29;20041;-91
2021/10/03 05:26:23;;;;;;;2.40;2.10;;;14.80;82.80;;;;;;4879025;29;20059;-92
2021/10/03 05:28:49;;;;;;;2.10;1.90;;;14.80;82.80;;;;;;4881766;29;20529;-91
2021/10/03 05:31:16;;;;;;;2.28;2.05;;;14.90;82.80;;;;;;4871509;29;20040;-91
2021/10/03 05:33:42;;;;;;;4.28;3.17;;;14.90;82.80;;;;;;4871866;29;20109;-91
2021/10/03 05:36:08;;;;;;;2.97;2.40;;;14.80;82.80;;;;;;4876513;29;20035;-91
2021/10/03 05:38:34;;;;;;;2.88;2.25;;;14.90;82.90;;;;;;4883511;29;20077;-90
2021/10/03 05:40:59;;;;;;;2.40;2.20;;;14.90;83.00;;;;;;4878191;29;20025;-88
2021/10/03 05:43:25;;;;;;;2.08;1.88;;;14.90;83.00;;;;;;4877385;29;20085;-88
2021/10/03 05:45:50;;;;;;;2.50;2.30;;;14.90;83.00;;;;;;4878868;29;20202;-88
2021/10/03 05:48:16;;;;;;;2.40;2.20;;;14.90;83.00;;;;;;4878287;29;20485;-87
2021/10/03 05:50:42;;;;;;;2.05;1.85;;;14.90;83.10;;;;;;4878039;29;20073;-88
2021/10/03 05:53:08;;;;;;;2.47;2.08;;;15.00;83.20;;;;;;4877702;29;20029;-87
2021/10/03 05:55:35;;;;;;;2.38;2.13;;;15.00;83.30;;;;;;4878337;29;20029;-87
2021/10/03 05:58:00;;;;;;;2.38;2.17;;;15.00;83.30;;;;;;4875106;29;20033;-88
2021/10/03 06:00:29;;;;;;;2.78;2.30;;;15.00;83.30;;;;;;4881112;29;20049;-88
2021/10/03 06:02:55;;;;;;;2.88;2.40;;;15.00;83.40;;;;;;4878782;29;20037;-88
2021/10/03 06:05:21;;;;;;;3.42;2.20;;;15.10;83.50;;;;;;4878554;29;20112;-88
2021/10/03 06:07:46;;;;;;;4.10;2.15;;;15.10;83.50;;;;;;4878627;29;20214;-88
2021/10/03 06:10:12;;;;;;;2.33;1.77;;;15.10;83.50;;;;;;4870394;29;20494;-87
2021/10/03 06:12:38;;;;;;;2.63;2.17;;;15.10;83.40;;;;;;4880548;29;20054;-88
2021/10/03 06:15:05;;;;;;;2.92;2.20;;;15.20;83.20;;;;;;4879627;29;20227;-89
2021/10/03 06:17:30;;;;;;;2.30;2.10;;;15.20;83.10;;;;;;4879649;29;20039;-88
2021/10/03 06:19:56;;;;;;;2.47;2.28;;;15.30;83.00;;;;;;4877962;29;20028;-89
2021/10/03 06:22:24;;;;;;;1.98;1.77;;;15.30;82.90;;;;;;4877967;29;20057;-88
2021/10/03 06:24:51;;;;;;;2.42;2.15;;;15.40;83.00;;;;;;4873702;29;20061;-88
2021/10/03 06:27:17;;;;;;;4.35;2.28;;;15.40;82.90;;;;;;4870088;29;20057;-87
2021/10/03 06:29:42;;;;;;;2.42;2.15;;;15.40;82.90;;;;;;4879102;29;20166;-89
2021/10/03 06:32:08;;;;;;;2.53;2.33;;;15.40;82.70;;;;;;4880774;29;20021;-88
2021/10/03 06:34:33;;;;;;;2.15;1.88;;;15.50;82.60;;;;;;4888849;29;20036;-87
2021/10/03 06:36:59;;;;;;;2.35;2.15;;;15.50;82.50;;;;;;4895749;29;20044;-87
2021/10/03 06:39:25;;;;;;;2.30;1.95;;;15.50;82.50;;;;;;4894093;29;20093;-87
2021/10/03 06:41:50;;;;;;;2.28;1.70;;;15.60;82.50;;;;;;4895154;29;20097;-88
2021/10/03 06:44:16;;;;;;;2.75;2.25;;;15.60;82.50;;;;;;4881811;29;20100;-88
2021/10/03 06:46:42;;;;;;;2.88;1.50;;;15.70;82.60;;;;;;4877683;29;20036;-88
2021/10/03 06:49:08;;;;;;;1.55;1.45;;;15.70;82.10;;;;;;4876604;29;20029;-88
2021/10/03 06:51:34;;;;;;;2.22;2.00;;;15.80;82.20;;;;;;4872556;29;20029;-88
2021/10/03 06:54:00;;;;;;;2.00;1.80;;;15.90;82.00;;;;;;4865219;29;20032;-88
2021/10/03 06:56:25;;;;;;;1.98;1.73;;;16.00;82.00;;;;;;4877013;29;20044;-88
2021/10/03 06:58:51;;;;;;;2.17;2.00;;;16.00;82.10;;;;;;4873217;29;20033;-88
2021/10/03 07:01:16;;;;;;;5.53;2.25;;;16.10;82.10;;;;;;4875668;29;20029;-88
2021/10/03 07:03:42;;;;;;;1.70;1.52;;;16.20;82.00;;;;;;4867182;29;20063;-87
2021/10/03 07:06:08;;;;;;;4.32;2.15;;;16.20;81.90;;;;;;4870620;29;20362;-87
2021/10/03 07:08:34;;;;;;;1.98;1.80;;;16.30;81.90;;;;;;4869824;29;20030;-87
2021/10/03 07:10:59;;;;;;;2.22;1.60;;;16.40;81.90;;;;;;4864852;29;20149;-87
2021/10/03 07:13:25;;;;;;;1.90;1.73;;;16.40;81.80;;;;;;4862213;29;20049;-88
2021/10/03 07:15:51;;;;;;;3.33;1.80;;;16.50;81.80;;;;;;4867251;29;20056;-88
2021/10/03 07:18:17;;;;;;;2.03;1.70;;;16.50;81.60;;;;;;4872499;29;20116;-86
2021/10/03 07:20:43;;;;;;;3.00;1.83;;;16.60;81.50;;;;;;4873857;29;20037;-88
2021/10/03 07:23:09;;;;;;;1.80;1.70;;;16.60;81.00;;;;;;4868267;29;20455;-86
2021/10/03 07:25:35;;;;;;;1.83;1.50;;;16.70;80.50;;;;;;4873744;29;20033;-89
2021/10/03 07:28:01;;;;;;;2.20;1.75;;;16.80;80.00;;;;;;4871309;29;20455;-88
2021/10/03 07:30:27;;;;;;;1.67;1.58;;;16.90;79.40;;;;;;4871352;29;20119;-89
2021/10/03 07:32:52;;;;;;;1.40;1.30;;;17.10;79.00;;;;;;4872767;29;20246;-87
2021/10/03 07:35:30;;;;;;;2.20;2.00;;;17.20;78.60;;;;;;4877456;29;20033;-90
2021/10/03 07:37:56;;;;;;;2.53;1.90;;;17.30;78.10;;;;;;4874736;29;20040;-87
2021/10/03 07:40:22;;;;;;;1.60;1.50;;;17.40;77.70;;;;;;4871147;29;20033;-87
2021/10/03 07:42:47;;;;;;;2.90;1.50;;;17.50;77.20;;;;;;4872798;29;20048;-86
2021/10/03 07:45:13;;;;;;;2.72;1.60;;;17.60;76.90;;;;;;4868060;29;20033;-86
2021/10/03 07:47:39;;;;;;;1.80;1.27;;;17.70;76.70;;;;;;4881889;29;20032;-86
2021/10/03 07:50:05;;;;;;;2.28;1.65;;;17.90;76.40;;;;;;4883236;29;20037;-86
2021/10/03 07:52:31;;;;;;;1.63;1.48;;;18.10;76.30;;;;;;4879200;29;20041;-85
2021/10/03 07:54:56;;;;;;;1.50;1.40;;;18.20;76.40;;;;;;4879089;29;20026;-86
2021/10/03 07:57:22;;;;;;;3.17;1.50;;;18.20;76.10;;;;;;4878628;29;20029;-85
2021/10/03 07:59:47;;;;;;;1.88;1.40;;;18.30;76.00;;;;;;4889233;29;20029;-86
2021/10/03 08:02:13;;;;;;;1.80;1.60;;;18.50;75.50;;;;;;4877683;29;20040;-87
2021/10/03 08:04:39;;;;;;;4.10;2.05;;;18.70;75.40;;;;;;4879129;29;20450;-87
2021/10/03 08:07:04;;;;;;;2.92;2.00;;;18.90;75.60;;;;;;4880318;29;20023;-87
2021/10/03 08:09:30;;;;;;;2.63;2.03;;;19.00;75.60;;;;;;4888092;29;20045;-87
2021/10/03 08:11:56;;;;;;;2.42;1.90;;;19.00;76.10;;;;;;4876253;29;20136;-87
2021/10/03 08:14:22;;;;;;;2.50;1.98;;;19.00;76.50;;;;;;4876382;29;20033;-86
2021/10/03 08:16:48;;;;;;;1.75;1.65;;;19.00;76.80;;;;;;4877552;29;20055;-87
2021/10/03 08:19:14;;;;;;;1.90;1.80;;;19.10;76.50;;;;;;4879698;29;20029;-86
2021/10/03 08:21:39;;;;;;;1.75;1.63;;;19.10;76.30;;;;;;4872593;29;20407;-87
2021/10/03 08:24:05;;;;;;;3.72;1.50;;;19.10;76.30;;;;;;4878675;29;20059;-86
2021/10/03 08:26:31;;;;;;;2.72;1.50;;;19.20;75.50;;;;;;4880930;29;20031;-87
2021/10/03 08:28:57;;;;;;;4.70;1.38;;;19.30;74.60;;;;;;4873730;29;20045;-88
2021/10/03 08:31:23;;;;;;;2.17;1.42;;;19.40;74.40;;;;;;4876191;29;20040;-88
2021/10/03 08:33:48;;;;;;;3.67;1.40;;;19.40;73.70;;;;;;4886238;29;20077;-88
2021/10/03 08:36:14;;;;;;;1.70;1.60;;;19.50;73.20;;;;;;4879345;29;20033;-89
2021/10/03 08:38:40;;;;;;;1.73;1.30;;;19.60;72.60;;;;;;4881351;29;20024;-88
2021/10/03 08:41:06;;;;;;;1.73;1.50;;;19.60;72.00;;;;;;4877913;29;20037;-87
2021/10/03 08:43:32;;;;;;;1.30;1.20;;;19.60;71.50;;;;;;4865354;29;20490;-87
2021/10/03 08:45:57;;;;;;;1.60;1.50;;;19.60;72.10;;;;;;4868191;29;20060;-87
2021/10/03 08:48:23;;;;;;;2.85;1.30;;;19.50;72.40;;;;;;4874617;29;20032;-86
2021/10/03 10:17:31;;;;;;;2.03;1.83;;;18.90;74.50;;;;;;4911608;29;20052;-93
2021/10/03 10:19:59;;;;;;;5.60;1.90;;;18.90;74.20;;;;;;4915901;29;20031;-93
2021/10/03 10:22:28;;;;;;;4.22;1.92;;;18.90;74.00;;;;;;4902397;29;20051;-93
2021/10/03 10:24:55;;;;;;;1.70;1.60;;;18.90;73.90;;;;;;4898253;29;20030;-93
2021/10/03 10:27:29;;;;;;;2.20;1.98;;;18.90;73.70;;;;;;4919174;29;20142;-93
2021/10/03 10:30:15;;;;;;;27.58;11.48;;;18.80;73.60;;;;;;4921904;29;20055;-93
2021/10/03 10:32:56;;;;;;;2.85;2.50;;;18.80;73.60;;;;;;4937977;29;20040;-93
2021/10/03 10:35:28;;;;;;;2.65;1.90;;;18.80;73.50;;;;;;4899092;29;20029;-92
2021/10/03 10:37:57;;;;;;;4.85;1.92;;;18.70;73.60;;;;;;4907208;29;20032;-93
2021/10/03 10:40:22;;;;;;;2.65;1.90;;;18.70;74.00;;;;;;4906045;29;20512;-94
2021/10/03 10:42:55;;;;;;;1.80;1.70;;;18.70;73.70;;;;;;4926243;29;20040;-93
2021/10/03 10:45:27;;;;;;;1.98;1.60;;;18.70;73.50;;;;;;4923419;29;20035;-93
2021/10/03 10:48:11;;;;;;;2.95;1.60;;;18.60;73.90;;;;;;4912303;29;20087;-92
2021/10/03 10:50:49;;;;;;;2.80;2.10;;;18.60;73.80;;;;;;4930516;29;20492;-93
2021/10/03 10:53:22;;;;;;;4.95;2.10;;;18.60;73.90;;;;;;4918573;29;20028;-93
2021/10/03 10:56:25;;;;;;;2.33;2.03;;;18.50;73.70;;;;;;4918726;29;20146;-93
2021/10/03 10:58:50;;;;;;;3.67;1.60;;;18.50;74.00;;;;;;4912421;29;20033;-94
2021/10/03 11:01:37;;;;;;;1.85;1.67;;;18.50;73.90;;;;;;4917099;29;20043;-93
2021/10/03 11:17:00;;;;;;;2.33;1.98;;;18.40;73.30;;;;;;4926661;29;20044;-90
2021/10/03 11:19:34;;;;;;;2.55;1.52;;;18.40;73.20;;;;;;4902265;29;20408;-91
2021/10/03 11:22:05;;;;;;;1.73;1.63;;;18.40;73.20;;;;;;4921929;29;20080;-89
2021/10/03 11:24:47;;;;;;;2.28;2.00;;;18.40;73.20;;;;;;4906233;29;20032;-90
2021/10/03 11:27:26;;;;;;;1.92;1.73;;;18.40;73.10;;;;;;4915060;29;20032;-89
2021/10/03 11:29:57;;;;;;;1.88;1.73;;;18.40;73.00;;;;;;4918571;29;20488;-91
2021/10/03 11:32:29;;;;;;;2.15;1.75;;;18.40;73.00;;;;;;4914373;29;20032;-90
2021/10/03 11:35:11;;;;;;;2.70;1.73;;;18.40;72.90;;;;;;4903210;29;20043;-91
2021/10/03 11:37:44;;;;;;;2.00;1.88;;;18.40;72.80;;;;;;4925373;29;20036;-90
2021/10/03 11:40:27;;;;;;;1.92;1.70;;;18.40;72.90;;;;;;4910326;29;20040;-90
2021/10/03 11:43:00;;;;;;;1.73;1.63;;;18.40;73.00;;;;;;4923579;29;20092;-90
2021/10/03 11:45:38;;;;;;;2.35;1.88;;;18.40;73.20;;;;;;4927413;29;20027;-88
2021/10/03 11:48:11;;;;;;;2.25;1.83;;;18.40;73.20;;;;;;4940905;28;20073;-89
2021/10/03 11:50:58;;;;;;;1.80;1.70;;;18.50;73.30;;;;;;4915787;29;20068;-89
2021/10/03 11:54:14;;;;;;;4.03;2.05;;;18.40;73.40;;;;;;4913344;29;20092;-89
2021/10/03 11:57:12;;;;;;;3.72;2.00;;;18.50;73.50;;;;;;4907694;29;20099;-88
2021/10/03 12:04:03;;;;;;;;;;;;;;;;;;;;;
2021/10/03 12:06:37;;;;;;;1.98;1.85;;;18.50;74.00;;;;;;4912211;29;20428;-88
2021/10/03 12:09:44;;;;;;;;;;;;;;;;;;;;;
2021/10/03 12:12:52;;;;;;;3.33;1.85;;;18.50;74.10;;;;;;4912108;29;20027;-89
2021/10/03 12:15:40;;;;;;;2.30;2.10;;;18.60;74.30;;;;;;4916061;29;20040;-88
2021/10/03 12:21:36;;;;;;;4.60;2.08;;;18.50;74.80;;;;;;4909495;29;20033;-89
2021/10/03 12:24:22;;;;;;;2.30;2.10;;;18.50;74.80;;;;;;4913320;29;20052;-89
2021/10/03 12:26:53;;;;;;;4.40;1.90;;;18.60;74.90;;;;;;4906525;29;20338;-89
2021/10/03 12:29:29;;;;;;;2.20;2.00;;;18.60;75.00;;;;;;4915896;29;20087;-89
2021/10/03 12:32:21;;;;;;;2.80;2.17;;;18.60;75.20;;;;;;4917343;29;20036;-88
2021/10/03 12:34:52;;;;;;;5.60;1.95;;;18.60;75.20;;;;;;4923072;29;20393;-88
2021/10/03 12:37:25;;;;;;;3.42;2.17;;;18.60;75.20;;;;;;4916038;29;20040;-88
2021/10/03 12:40:05;;;;;;;1.75;1.65;;;18.60;75.30;;;;;;4916742;29;20039;-89
2021/10/03 12:42:31;;;;;;;2.53;1.80;;;18.60;75.10;;;;;;4904612;29;20144;-87
2021/10/03 12:45:08;;;;;;;3.15;2.08;;;18.60;74.90;;;;;;4906730;29;20613;-90
2021/10/03 12:47:46;;;;;;;2.15;1.90;;;18.60;74.70;;;;;;4902432;29;20067;-90
2021/10/03 12:50:12;;;;;;;2.17;1.98;;;18.70;74.50;;;;;;4914818;29;20091;-90
2021/10/03 12:52:47;;;;;;;5.70;2.78;;;18.70;74.40;;;;;;4909404;29;20028;-90
2021/10/03 12:55:13;;;;;;;10.18;6.25;;;18.70;74.80;;;;;;4908299;29;20021;-89
2021/10/03 13:16:35;;;;;;;;;;;;;;;;;;;;;
2021/10/03 13:19:41;;;;;;;4.45;2.72;;;18.50;78.70;;;;;;4915670;29;20515;-87
2021/10/03 13:22:17;;;;;;;5.28;2.22;;;18.50;78.60;;;;;;4908001;29;20038;-89
2021/10/03 13:28:36;;;;;;;2.75;2.47;;;18.60;79.40;;;;;;4882740;29;20157;-88
2021/10/03 13:31:19;;;;;;;4.63;2.25;;;18.60;79.50;;;;;;4906140;29;20044;-89
2021/10/03 13:34:13;;;;;;;2.45;2.25;;;18.60;79.60;;;;;;4910920;29;20029;-89
2021/10/03 13:36:45;;;;;;;2.38;2.17;;;18.60;79.50;;;;;;4919123;29;20028;-88
2021/10/03 13:42:17;;;;;;;3.50;2.70;;;18.70;79.70;;;;;;4913227;29;20040;-88
2021/10/03 13:45:02;;;;;;;3.42;2.40;;;18.70;80.20;;;;;;4908853;29;20032;-88
2021/10/03 13:47:28;;;;;;;2.67;2.30;;;18.70;79.50;;;;;;4904160;29;20493;-88
2021/10/03 13:49:56;;;;;;;2.53;2.05;;;18.70;79.60;;;;;;4907134;29;20024;-88
2021/10/03 13:53:05;;;;;;;4.90;2.55;;;18.80;79.90;;;;;;4908320;29;20095;-89
2021/10/03 13:55:29;;;;;;;5.53;2.38;;;18.70;80.30;;;;;;4911340;29;20040;-90
2021/10/03 13:57:55;;;;;;;3.67;2.00;;;18.80;80.10;;;;;;4917759;29;20083;-89
2021/10/03 14:00:31;;;;;;;3.30;2.50;;;18.80;80.20;;;;;;4909497;29;20044;-88
2021/10/03 14:02:57;;;;;;;3.88;2.50;;;18.80;80.20;;;;;;4907561;29;20028;-90
2021/10/03 14:05:26;;;;;;;8.10;3.15;;;18.80;80.50;;;;;;4903143;29;20088;-89
2021/10/03 14:07:55;;;;;;;6.40;3.17;;;18.80;80.70;;;;;;4902471;29;20041;-88
2021/10/03 14:10:28;;;;;;;3.22;2.88;;;18.80;80.90;;;;;;4898957;29;20064;-88
2021/10/03 14:13:13;;;;;;;3.58;2.78;;;18.70;80.90;;;;;;4903040;29;20031;-89
2021/10/03 14:19:17;;;;;;;3.58;2.85;;;18.70;81.30;;;;;;4925475;29;20044;-87
2021/10/03 14:21:59;;;;;;;;;;;;;;;;;;;;;
2021/10/03 14:24:48;;;;;;;3.13;2.78;;;18.60;81.80;;;;;;4933373;29;20039;-88
2021/10/03 14:27:16;;;;;;;4.35;3.15;;;18.60;82.00;;;;;;4914788;29;20514;-88
2021/10/03 14:33:11;;;;;;;3.17;2.60;;;18.60;81.90;;;;;;4894436;29;20040;-88
2021/10/03 14:35:48;;;;;;;4.95;3.10;;;18.60;81.70;;;;;;4907969;29;20108;-88
2021/10/03 14:38:17;;;;;;;4.88;3.20;;;18.60;81.70;;;;;;4898656;29;20492;-89
2021/10/03 14:40:55;;;;;;;6.35;2.63;;;18.60;81.90;;;;;;4914700;29;20050;-88
2021/10/03 14:43:46;;;;;;;4.22;2.90;;;18.50;81.90;;;;;;4905336;29;20128;-89
2021/10/03 14:46:12;;;;;;;4.55;2.75;;;18.50;81.90;;;;;;4900776;29;20132;-88
2021/10/03 14:48:46;;;;;;;5.07;2.45;;;18.50;81.80;;;;;;4897731;29;20114;-89
2021/10/03 14:51:15;;;;;;;9.55;7.13;;;18.50;82.00;;;;;;4912078;29;20046;-89
2021/10/03 14:53:42;;;;;;;4.32;3.13;;;18.50;82.10;;;;;;4911930;29;20223;-89
2021/10/03 14:56:11;;;;;;;3.90;2.25;;;18.40;82.10;;;;;;4914679;29;20111;-90
2021/10/03 14:58:40;;;;;;;5.10;2.38;;;18.40;82.20;;;;;;4912226;29;20032;-88
2021/10/03 15:01:09;;;;;;;3.40;2.40;;;18.40;82.20;;;;;;4900762;29;20044;-89
2021/10/03 15:03:35;;;;;;;2.15;1.98;;;18.50;82.40;;;;;;4909585;29;20028;-89
2021/10/03 15:06:08;;;;;;;2.72;2.20;;;18.40;82.10;;;;;;4898065;29;20029;-88
2021/10/03 15:08:39;;;;;;;2.50;2.30;;;18.40;82.20;;;;;;4905558;29;20047;-89
2021/10/03 15:11:07;;;;;;;3.00;2.10;;;18.40;82.00;;;;;;4906725;29;20129;-89
2021/10/03 15:13:36;;;;;;;42.50;28.20;;;18.50;82.10;;;;;;4910763;29;20070;-87
2021/10/03 15:16:01;;;;;;;6.60;5.00;;;18.50;82.20;;;;;;4909599;29;20393;-88
2021/10/03 15:18:27;;;;;;;4.22;3.63;;;18.50;82.30;;;;;;4909730;29;20047;-88
2021/10/03 15:20:55;;;;;;;2.30;2.10;;;18.50;82.40;;;;;;4903564;29;20036;-89